sensor_id;sensor_type;location;lat;lon;timestamp;temperature;humidity
33207;DHT22;19565;46.602;11.534;2023-02-01T00:01:15;2.70;90.70
33207;DHT22;19565;46.602;11.534;2023-02-01T00:03:43;2.80;90.70
33207;DHT22;19565;46.602;11.534;2023-02-01T00:06:11;3.00;90.70
33207;DHT22;19565;46.602;11.534;2023-02-01T00:08:39;3.00;90.70
33207;DHT22;19565;46.602;11.534;2023-02-01T00:11:10;3.20;90.50
33207;DHT22;19565;46.602;11.534;2023-02-01T00:13:40;3.10;90.00
33207;DHT22;19565;46.602;11.534;2023-02-01T00:16:10;3.10;90.30
33207;DHT22;19565;46.602;11.534;2023-02-01T00:18:39;3.20;90.50
33207;DHT22;19565;46.602;11.534;2023-02-01T00:21:07;3.20;90.50
33207;DHT22;19565;46.602;11.534;2023-02-01T00:23:35;3.30;90.50
33207;DHT22;19565;46.602;11.534;2023-02-01T00:26:06;3.20;90.30
33207;DHT22;19565;46.602;11.534;2023-02-01T00:28:36;2.70;90.60
33207;DHT22;19565;46.602;11.534;2023-02-01T00:31:05;2.50;91.10
33207;DHT22;19565;46.602;11.534;2023-02-01T00:33:33;2.40;91.50
33207;DHT22;19565;46.602;11.534;2023-02-01T00:36:03;2.20;91.60
33207;DHT22;19565;46.602;11.534;2023-02-01T00:38:32;2.30;91.50
33207;DHT22;19565;46.602;11.534;2023-02-01T00:41:05;2.50;91.50
33207;DHT22;19565;46.602;11.534;2023-02-01T00:43:35;2.60;91.70
33207;DHT22;19565;46.602;11.534;2023-02-01T00:46:03;2.40;91.20
33207;DHT22;19565;46.602;11.534;2023-02-01T00:48:31;2.10;91.70
33207;DHT22;19565;46.602;11.534;2023-02-01T00:51:00;2.30;92.00
33207;DHT22;19565;46.602;11.534;2023-02-01T00:53:28;2.50;91.80
33207;DHT22;19565;46.602;11.534;2023-02-01T00:55:57;2.40;91.70
33207;DHT22;19565;46.602;11.534;2023-02-01T00:58:25;2.30;91.60
33207;DHT22;19565;46.602;11.534;2023-02-01T01:01:02;2.50;91.50
33207;DHT22;19565;46.602;11.534;2023-02-01T01:03:32;2.40;91.60
33207;DHT22;19565;46.602;11.534;2023-02-01T01:06:03;2.50;91.70
33207;DHT22;19565;46.602;11.534;2023-02-01T01:08:32;2.60;91.30
33207;DHT22;19565;46.602;11.534;2023-02-01T01:11:05;2.80;91.20
33207;DHT22;19565;46.602;11.534;2023-02-01T01:13:34;2.90;91.40
33207;DHT22;19565;46.602;11.534;2023-02-01T01:16:05;2.60;91.10
33207;DHT22;19565;46.602;11.534;2023-02-01T01:18:34;2.50;91.40
33207;DHT22;19565;46.602;11.534;2023-02-01T01:21:05;2.70;91.30
33207;DHT22;19565;46.602;11.534;2023-02-01T01:23:34;2.80;91.50
33207;DHT22;19565;46.602;11.534;2023-02-01T01:26:05;2.70;91.10
33207;DHT22;19565;46.602;11.534;2023-02-01T01:28:34;2.40;91.70
33207;DHT22;19565;46.602;11.534;2023-02-01T01:31:03;2.50;91.70
33207;DHT22;19565;46.602;11.534;2023-02-01T01:33:32;2.70;91.60
33207;DHT22;19565;46.602;11.534;2023-02-01T01:36:00;2.80;91.50
33207;DHT22;19565;46.602;11.534;2023-02-01T01:38:28;2.70;91.50
33207;DHT22;19565;46.602;11.534;2023-02-01T01:40:56;2.50;91.80
33207;DHT22;19565;46.602;11.534;2023-02-01T01:43:24;2.70;91.80
33207;DHT22;19565;46.602;11.534;2023-02-01T01:45:52;2.70;91.90
33207;DHT22;19565;46.602;11.534;2023-02-01T01:48:25;2.50;92.00
33207;DHT22;19565;46.602;11.534;2023-02-01T01:50:58;2.60;92.10
33207;DHT22;19565;46.602;11.534;2023-02-01T01:53:33;2.50;92.10
33207;DHT22;19565;46.602;11.534;2023-02-01T01:56:06;2.40;92.30
33207;DHT22;19565;46.602;11.534;2023-02-01T01:58:35;1.90;93.10
33207;DHT22;19565;46.602;11.534;2023-02-01T02:01:03;1.60;93.60
33207;DHT22;19565;46.602;11.534;2023-02-01T02:03:35;1.50;93.70
33207;DHT22;19565;46.602;11.534;2023-02-01T02:06:11;1.70;93.60
33207;DHT22;19565;46.602;11.534;2023-02-01T02:08:41;1.80;93.60
33207;DHT22;19565;46.602;11.534;2023-02-01T02:11:12;1.80;93.60
33207;DHT22;19565;46.602;11.534;2023-02-01T02:13:43;1.80;93.60
33207;DHT22;19565;46.602;11.534;2023-02-01T02:22:35;2.10;93.20
33207;DHT22;19565;46.602;11.534;2023-02-01T02:28:45;2.10;93.10
33207;DHT22;19565;46.602;11.534;2023-02-01T02:31:46;2.10;93.00
33207;DHT22;19565;46.602;11.534;2023-02-01T02:34:22;2.30;92.80
33207;DHT22;19565;46.602;11.534;2023-02-01T02:37:02;2.40;92.80
33207;DHT22;19565;46.602;11.534;2023-02-01T02:39:39;2.50;92.70
33207;DHT22;19565;46.602;11.534;2023-02-01T02:42:14;2.60;92.70
33207;DHT22;19565;46.602;11.534;2023-02-01T02:45:06;2.60;92.60
33207;DHT22;19565;46.602;11.534;2023-02-01T02:47:56;2.50;92.50
33207;DHT22;19565;46.602;11.534;2023-02-01T02:50:29;2.20;93.00
33207;DHT22;19565;46.602;11.534;2023-02-01T02:53:21;2.20;93.50
33207;DHT22;19565;46.602;11.534;2023-02-01T02:56:09;2.30;93.00
33207;DHT22;19565;46.602;11.534;2023-02-01T02:58:58;2.00;93.20
33207;DHT22;19565;46.602;11.534;2023-02-01T03:01:44;2.10;93.30
33207;DHT22;19565;46.602;11.534;2023-02-01T03:04:30;2.20;93.20
33207;DHT22;19565;46.602;11.534;2023-02-01T03:07:12;2.20;92.90
33207;DHT22;19565;46.602;11.534;2023-02-01T03:09:41;1.90;93.20
33207;DHT22;19565;46.602;11.534;2023-02-01T03:12:13;1.90;93.50
33207;DHT22;19565;46.602;11.534;2023-02-01T03:15:04;1.90;93.40
33207;DHT22;19565;46.602;11.534;2023-02-01T03:17:39;2.20;93.30
33207;DHT22;19565;46.602;11.534;2023-02-01T03:20:11;2.20;93.20
33207;DHT22;19565;46.602;11.534;2023-02-01T03:22:43;2.10;93.20
33207;DHT22;19565;46.602;11.534;2023-02-01T03:25:14;2.20;93.20
33207;DHT22;19565;46.602;11.534;2023-02-01T03:27:46;2.30;93.00
33207;DHT22;19565;46.602;11.534;2023-02-01T03:30:20;2.30;92.90
33207;DHT22;19565;46.602;11.534;2023-02-01T03:32:51;1.90;93.20
33207;DHT22;19565;46.602;11.534;2023-02-01T03:35:29;1.80;93.40
33207;DHT22;19565;46.602;11.534;2023-02-01T03:38:07;2.00;93.40
33207;DHT22;19565;46.602;11.534;2023-02-01T03:40:37;1.60;93.90
33207;DHT22;19565;46.602;11.534;2023-02-01T03:43:11;1.60;94.20
33207;DHT22;19565;46.602;11.534;2023-02-01T03:45:42;1.80;93.80
33207;DHT22;19565;46.602;11.534;2023-02-01T03:48:13;1.90;93.60
33207;DHT22;19565;46.602;11.534;2023-02-01T03:50:46;1.80;93.80
33207;DHT22;19565;46.602;11.534;2023-02-01T03:53:20;1.80;93.90
33207;DHT22;19565;46.602;11.534;2023-02-01T03:55:50;2.00;93.90
33207;DHT22;19565;46.602;11.534;2023-02-01T03:58:20;1.80;94.00
33207;DHT22;19565;46.602;11.534;2023-02-01T04:00:51;1.60;94.10
33207;DHT22;19565;46.602;11.534;2023-02-01T04:03:19;1.50;94.50
33207;DHT22;19565;46.602;11.534;2023-02-01T04:05:48;1.70;94.40
33207;DHT22;19565;46.602;11.534;2023-02-01T04:08:17;1.90;94.00
33207;DHT22;19565;46.602;11.534;2023-02-01T04:10:46;1.80;93.90
33207;DHT22;19565;46.602;11.534;2023-02-01T04:13:14;1.80;94.20
33207;DHT22;19565;46.602;11.534;2023-02-01T04:15:42;1.40;94.40
33207;DHT22;19565;46.602;11.534;2023-02-01T04:18:10;1.30;94.80
33207;DHT22;19565;46.602;11.534;2023-02-01T04:20:38;1.10;94.90
33207;DHT22;19565;46.602;11.534;2023-02-01T04:23:06;1.10;95.00
33207;DHT22;19565;46.602;11.534;2023-02-01T04:25:35;1.00;95.20
33207;DHT22;19565;46.602;11.534;2023-02-01T04:28:03;1.10;95.20
33207;DHT22;19565;46.602;11.534;2023-02-01T04:30:33;1.10;95.20
33207;DHT22;19565;46.602;11.534;2023-02-01T04:33:01;1.00;95.20
33207;DHT22;19565;46.602;11.534;2023-02-01T04:35:32;1.00;95.20
33207;DHT22;19565;46.602;11.534;2023-02-01T04:38:00;1.10;95.30
33207;DHT22;19565;46.602;11.534;2023-02-01T04:40:28;1.00;95.30
33207;DHT22;19565;46.602;11.534;2023-02-01T04:42:58;0.90;95.30
33207;DHT22;19565;46.602;11.534;2023-02-01T04:45:27;1.00;95.30
33207;DHT22;19565;46.602;11.534;2023-02-01T04:47:55;1.10;95.30
33207;DHT22;19565;46.602;11.534;2023-02-01T04:50:23;1.10;95.40
33207;DHT22;19565;46.602;11.534;2023-02-01T04:52:51;1.10;95.30
33207;DHT22;19565;46.602;11.534;2023-02-01T04:55:19;1.30;95.10
33207;DHT22;19565;46.602;11.534;2023-02-01T04:57:47;1.20;95.00
33207;DHT22;19565;46.602;11.534;2023-02-01T05:00:18;1.20;95.10
33207;DHT22;19565;46.602;11.534;2023-02-01T05:02:46;1.30;95.00
33207;DHT22;19565;46.602;11.534;2023-02-01T05:05:14;1.60;94.80
33207;DHT22;19565;46.602;11.534;2023-02-01T05:07:42;1.60;94.80
33207;DHT22;19565;46.602;11.534;2023-02-01T05:10:11;1.40;94.80
33207;DHT22;19565;46.602;11.534;2023-02-01T05:12:39;1.30;95.10
33207;DHT22;19565;46.602;11.534;2023-02-01T05:15:25;1.50;95.10
33207;DHT22;19565;46.602;11.534;2023-02-01T05:17:54;1.60;94.90
33207;DHT22;19565;46.602;11.534;2023-02-01T05:20:22;1.20;95.30
33207;DHT22;19565;46.602;11.534;2023-02-01T05:22:50;1.00;96.00
33207;DHT22;19565;46.602;11.534;2023-02-01T05:25:18;1.00;96.10
33207;DHT22;19565;46.602;11.534;2023-02-01T05:27:46;1.10;95.80
33207;DHT22;19565;46.602;11.534;2023-02-01T05:30:15;1.10;95.70
33207;DHT22;19565;46.602;11.534;2023-02-01T05:32:44;1.20;95.60
33207;DHT22;19565;46.602;11.534;2023-02-01T05:35:12;1.20;95.70
33207;DHT22;19565;46.602;11.534;2023-02-01T05:37:40;1.10;95.90
33207;DHT22;19565;46.602;11.534;2023-02-01T05:40:09;0.90;95.90
33207;DHT22;19565;46.602;11.534;2023-02-01T05:42:37;0.90;96.10
33207;DHT22;19565;46.602;11.534;2023-02-01T05:45:07;1.00;96.10
33207;DHT22;19565;46.602;11.534;2023-02-01T05:47:35;1.20;95.80
33207;DHT22;19565;46.602;11.534;2023-02-01T05:50:06;1.00;95.90
33207;DHT22;19565;46.602;11.534;2023-02-01T05:52:34;0.90;96.10
33207;DHT22;19565;46.602;11.534;2023-02-01T05:55:02;0.90;96.10
33207;DHT22;19565;46.602;11.534;2023-02-01T05:57:30;1.00;96.10
33207;DHT22;19565;46.602;11.534;2023-02-01T05:59:59;1.00;95.90
33207;DHT22;19565;46.602;11.534;2023-02-01T06:02:27;1.00;95.90
33207;DHT22;19565;46.602;11.534;2023-02-01T06:04:55;1.10;95.80
33207;DHT22;19565;46.602;11.534;2023-02-01T06:07:24;1.10;96.00
33207;DHT22;19565;46.602;11.534;2023-02-01T06:09:55;1.40;95.70
33207;DHT22;19565;46.602;11.534;2023-02-01T06:12:23;1.30;95.50
33207;DHT22;19565;46.602;11.534;2023-02-01T06:14:51;1.20;95.70
33207;DHT22;19565;46.602;11.534;2023-02-01T06:17:19;1.10;95.70
33207;DHT22;19565;46.602;11.534;2023-02-01T06:19:47;1.00;95.90
33207;DHT22;19565;46.602;11.534;2023-02-01T06:22:15;1.20;95.90
33207;DHT22;19565;46.602;11.534;2023-02-01T06:24:44;1.10;95.90
33207;DHT22;19565;46.602;11.534;2023-02-01T06:27:12;0.90;96.20
33207;DHT22;19565;46.602;11.534;2023-02-01T06:29:41;0.90;96.30
33207;DHT22;19565;46.602;11.534;2023-02-01T06:32:09;1.10;96.10
33207;DHT22;19565;46.602;11.534;2023-02-01T06:34:37;1.00;96.10
33207;DHT22;19565;46.602;11.534;2023-02-01T06:37:06;1.20;96.30
33207;DHT22;19565;46.602;11.534;2023-02-01T06:39:34;0.90;96.50
33207;DHT22;19565;46.602;11.534;2023-02-01T06:42:04;0.80;96.50
33207;DHT22;19565;46.602;11.534;2023-02-01T06:44:32;0.80;96.30
33207;DHT22;19565;46.602;11.534;2023-02-01T06:47:00;0.90;96.20
33207;DHT22;19565;46.602;11.534;2023-02-01T06:49:28;0.90;96.10
33207;DHT22;19565;46.602;11.534;2023-02-01T06:51:56;1.00;95.90
33207;DHT22;19565;46.602;11.534;2023-02-01T06:54:26;1.10;95.90
33207;DHT22;19565;46.602;11.534;2023-02-01T06:56:54;1.20;95.80
33207;DHT22;19565;46.602;11.534;2023-02-01T06:59:24;1.40;95.60
33207;DHT22;19565;46.602;11.534;2023-02-01T07:01:52;1.30;95.60
33207;DHT22;19565;46.602;11.534;2023-02-01T07:04:20;1.20;95.90
33207;DHT22;19565;46.602;11.534;2023-02-01T07:06:48;1.10;95.90
33207;DHT22;19565;46.602;11.534;2023-02-01T07:09:16;1.10;95.90
33207;DHT22;19565;46.602;11.534;2023-02-01T07:11:44;1.30;96.00
33207;DHT22;19565;46.602;11.534;2023-02-01T07:14:13;1.30;96.00
33207;DHT22;19565;46.602;11.534;2023-02-01T07:16:42;1.30;95.90
33207;DHT22;19565;46.602;11.534;2023-02-01T07:19:10;1.50;95.70
33207;DHT22;19565;46.602;11.534;2023-02-01T07:21:38;1.50;95.60
33207;DHT22;19565;46.602;11.534;2023-02-01T07:24:06;1.50;95.50
33207;DHT22;19565;46.602;11.534;2023-02-01T07:26:34;1.30;95.70
33207;DHT22;19565;46.602;11.534;2023-02-01T07:29:02;1.30;96.00
33207;DHT22;19565;46.602;11.534;2023-02-01T07:31:30;1.20;96.00
33207;DHT22;19565;46.602;11.534;2023-02-01T07:34:00;1.10;96.30
33207;DHT22;19565;46.602;11.534;2023-02-01T07:36:29;0.90;96.60
33207;DHT22;19565;46.602;11.534;2023-02-01T07:38:57;0.90;96.40
33207;DHT22;19565;46.602;11.534;2023-02-01T07:41:26;1.30;96.30
33207;DHT22;19565;46.602;11.534;2023-02-01T07:43:54;1.50;95.90
33207;DHT22;19565;46.602;11.534;2023-02-01T07:46:23;1.40;96.10
33207;DHT22;19565;46.602;11.534;2023-02-01T07:48:51;1.50;95.90
33207;DHT22;19565;46.602;11.534;2023-02-01T07:51:20;1.50;95.80
33207;DHT22;19565;46.602;11.534;2023-02-01T07:53:48;1.60;95.60
33207;DHT22;19565;46.602;11.534;2023-02-01T07:56:18;1.70;95.70
33207;DHT22;19565;46.602;11.534;2023-02-01T07:58:47;1.80;95.70
33207;DHT22;19565;46.602;11.534;2023-02-01T08:01:16;1.90;95.50
33207;DHT22;19565;46.602;11.534;2023-02-01T08:03:47;1.90;95.50
33207;DHT22;19565;46.602;11.534;2023-02-01T08:06:15;1.60;95.30
33207;DHT22;19565;46.602;11.534;2023-02-01T08:08:45;1.80;95.30
33207;DHT22;19565;46.602;11.534;2023-02-01T08:11:14;1.90;95.20
33207;DHT22;19565;46.602;11.534;2023-02-01T08:13:43;2.00;95.20
33207;DHT22;19565;46.602;11.534;2023-02-01T08:16:12;2.00;95.00
33207;DHT22;19565;46.602;11.534;2023-02-01T08:18:40;2.00;94.90
33207;DHT22;19565;46.602;11.534;2023-02-01T08:21:11;2.10;94.90
33207;DHT22;19565;46.602;11.534;2023-02-01T08:23:40;2.10;94.80
33207;DHT22;19565;46.602;11.534;2023-02-01T08:26:12;2.10;94.80
33207;DHT22;19565;46.602;11.534;2023-02-01T08:28:43;2.10;94.80
33207;DHT22;19565;46.602;11.534;2023-02-01T08:31:13;1.90;95.00
33207;DHT22;19565;46.602;11.534;2023-02-01T08:33:42;1.70;95.30
33207;DHT22;19565;46.602;11.534;2023-02-01T08:36:11;1.50;95.50
33207;DHT22;19565;46.602;11.534;2023-02-01T08:38:39;1.80;95.50
33207;DHT22;19565;46.602;11.534;2023-02-01T08:41:10;1.90;95.40
33207;DHT22;19565;46.602;11.534;2023-02-01T08:43:39;1.90;95.30
33207;DHT22;19565;46.602;11.534;2023-02-01T08:46:08;1.80;95.40
33207;DHT22;19565;46.602;11.534;2023-02-01T08:48:36;1.90;95.40
33207;DHT22;19565;46.602;11.534;2023-02-01T08:51:06;1.80;95.30
33207;DHT22;19565;46.602;11.534;2023-02-01T08:53:35;1.60;95.10
33207;DHT22;19565;46.602;11.534;2023-02-01T08:56:04;1.70;95.10
33207;DHT22;19565;46.602;11.534;2023-02-01T08:58:35;1.90;94.90
33207;DHT22;19565;46.602;11.534;2023-02-01T09:01:03;2.10;94.90
33207;DHT22;19565;46.602;11.534;2023-02-01T09:03:32;2.20;94.80
33207;DHT22;19565;46.602;11.534;2023-02-01T09:06:00;2.20;94.70
33207;DHT22;19565;46.602;11.534;2023-02-01T09:08:29;2.20;94.90
33207;DHT22;19565;46.602;11.534;2023-02-01T09:11:00;2.30;94.70
33207;DHT22;19565;46.602;11.534;2023-02-01T09:13:29;2.40;94.40
33207;DHT22;19565;46.602;11.534;2023-02-01T09:15:59;2.50;94.50
33207;DHT22;19565;46.602;11.534;2023-02-01T09:18:27;2.40;94.20
33207;DHT22;19565;46.602;11.534;2023-02-01T09:20:55;2.40;94.10
33207;DHT22;19565;46.602;11.534;2023-02-01T09:23:23;2.60;94.30
33207;DHT22;19565;46.602;11.534;2023-02-01T09:25:51;2.70;94.20
33207;DHT22;19565;46.602;11.534;2023-02-01T09:28:20;2.70;93.60
33207;DHT22;19565;46.602;11.534;2023-02-01T09:30:48;2.70;93.70
33207;DHT22;19565;46.602;11.534;2023-02-01T09:33:17;2.90;93.70
33207;DHT22;19565;46.602;11.534;2023-02-01T09:35:47;2.90;93.80
33207;DHT22;19565;46.602;11.534;2023-02-01T09:38:15;3.10;93.80
33207;DHT22;19565;46.602;11.534;2023-02-01T09:40:46;3.10;93.80
33207;DHT22;19565;46.602;11.534;2023-02-01T09:43:25;3.10;93.40
33207;DHT22;19565;46.602;11.534;2023-02-01T09:46:10;3.20;93.30
33207;DHT22;19565;46.602;11.534;2023-02-01T09:48:44;3.30;93.30
33207;DHT22;19565;46.602;11.534;2023-02-01T09:51:16;3.30;92.30
33207;DHT22;19565;46.602;11.534;2023-02-01T09:53:58;3.50;91.60
33207;DHT22;19565;46.602;11.534;2023-02-01T09:56:35;3.70;91.80
33207;DHT22;19565;46.602;11.534;2023-02-01T09:59:09;3.80;91.90
33207;DHT22;19565;46.602;11.534;2023-02-01T10:01:38;3.90;91.40
33207;DHT22;19565;46.602;11.534;2023-02-01T10:04:10;4.00;90.80
33207;DHT22;19565;46.602;11.534;2023-02-01T10:06:50;4.20;90.20
33207;DHT22;19565;46.602;11.534;2023-02-01T10:09:35;4.30;90.40
33207;DHT22;19565;46.602;11.534;2023-02-01T10:12:37;4.40;90.00
33207;DHT22;19565;46.602;11.534;2023-02-01T10:15:27;4.50;90.00
33207;DHT22;19565;46.602;11.534;2023-02-01T10:18:14;4.60;90.00
33207;DHT22;19565;46.602;11.534;2023-02-01T10:20:56;4.60;88.60
33207;DHT22;19565;46.602;11.534;2023-02-01T10:23:40;4.60;88.90
33207;DHT22;19565;46.602;11.534;2023-02-01T10:26:18;4.70;89.30
33207;DHT22;19565;46.602;11.534;2023-02-01T10:28:49;4.70;89.40
33207;DHT22;19565;46.602;11.534;2023-02-01T10:31:18;4.80;88.50
33207;DHT22;19565;46.602;11.534;2023-02-01T10:33:51;5.00;86.60
33207;DHT22;19565;46.602;11.534;2023-02-01T10:36:25;5.20;86.60
33207;DHT22;19565;46.602;11.534;2023-02-01T10:38:57;5.20;86.60
33207;DHT22;19565;46.602;11.534;2023-02-01T10:41:31;5.20;87.10
33207;DHT22;19565;46.602;11.534;2023-02-01T10:44:02;5.20;87.10
33207;DHT22;19565;46.602;11.534;2023-02-01T10:46:31;5.20;86.60
33207;DHT22;19565;46.602;11.534;2023-02-01T10:49:03;5.30;86.10
33207;DHT22;19565;46.602;11.534;2023-02-01T10:51:42;5.40;85.70
33207;DHT22;19565;46.602;11.534;2023-02-01T10:54:15;5.50;84.90
33207;DHT22;19565;46.602;11.534;2023-02-01T10:56:44;5.70;84.30
33207;DHT22;19565;46.602;11.534;2023-02-01T10:59:16;5.80;83.80
33207;DHT22;19565;46.602;11.534;2023-02-01T11:01:46;5.80;84.00
33207;DHT22;19565;46.602;11.534;2023-02-01T11:04:15;5.90;84.50
33207;DHT22;19565;46.602;11.534;2023-02-01T11:06:48;5.90;83.80
33207;DHT22;19565;46.602;11.534;2023-02-01T11:09:19;5.90;83.80
33207;DHT22;19565;46.602;11.534;2023-02-01T11:11:57;5.90;83.50
33207;DHT22;19565;46.602;11.534;2023-02-01T11:14:35;6.00;83.60
33207;DHT22;19565;46.602;11.534;2023-02-01T11:17:25;6.10;83.60
33207;DHT22;19565;46.602;11.534;2023-02-01T11:19:59;6.00;84.60
33207;DHT22;19565;46.602;11.534;2023-02-01T11:22:29;6.10;85.70
33207;DHT22;19565;46.602;11.534;2023-02-01T11:25:10;6.20;85.30
33207;DHT22;19565;46.602;11.534;2023-02-01T11:27:40;6.20;84.50
33207;DHT22;19565;46.602;11.534;2023-02-01T11:30:30;6.30;83.70
33207;DHT22;19565;46.602;11.534;2023-02-01T11:33:00;6.40;84.80
33207;DHT22;19565;46.602;11.534;2023-02-01T11:35:32;6.50;84.10
33207;DHT22;19565;46.602;11.534;2023-02-01T11:38:12;6.60;83.40
33207;DHT22;19565;46.602;11.534;2023-02-01T11:40:41;6.80;83.50
33207;DHT22;19565;46.602;11.534;2023-02-01T11:43:14;6.90;83.10
33207;DHT22;19565;46.602;11.534;2023-02-01T11:45:53;7.00;83.60
33207;DHT22;19565;46.602;11.534;2023-02-01T11:48:23;7.20;82.10
33207;DHT22;19565;46.602;11.534;2023-02-01T11:51:02;7.30;80.00
33207;DHT22;19565;46.602;11.534;2023-02-01T11:53:44;7.30;80.00
33207;DHT22;19565;46.602;11.534;2023-02-01T11:56:19;7.30;80.10
33207;DHT22;19565;46.602;11.534;2023-02-01T11:59:00;7.40;80.10
33207;DHT22;19565;46.602;11.534;2023-02-01T12:01:44;7.40;79.50
33207;DHT22;19565;46.602;11.534;2023-02-01T12:04:45;7.50;80.00
33207;DHT22;19565;46.602;11.534;2023-02-01T12:07:20;7.50;79.50
33207;DHT22;19565;46.602;11.534;2023-02-01T12:10:03;7.60;78.70
33207;DHT22;19565;46.602;11.534;2023-02-01T12:12:40;7.70;77.10
33207;DHT22;19565;46.602;11.534;2023-02-01T12:15:27;7.70;75.60
33207;DHT22;19565;46.602;11.534;2023-02-01T12:18:25;7.80;74.50
33207;DHT22;19565;46.602;11.534;2023-02-01T12:21:10;7.90;73.80
33207;DHT22;19565;46.602;11.534;2023-02-01T12:23:54;8.00;73.30
33207;DHT22;19565;46.602;11.534;2023-02-01T12:26:44;8.00;72.50
33207;DHT22;19565;46.602;11.534;2023-02-01T12:29:34;8.10;72.80
33207;DHT22;19565;46.602;11.534;2023-02-01T12:32:16;8.20;73.80
33207;DHT22;19565;46.602;11.534;2023-02-01T12:34:57;8.20;74.00
33207;DHT22;19565;46.602;11.534;2023-02-01T12:37:48;8.30;71.90
33207;DHT22;19565;46.602;11.534;2023-02-01T12:40:32;8.40;70.90
33207;DHT22;19565;46.602;11.534;2023-02-01T12:43:11;8.50;69.90
33207;DHT22;19565;46.602;11.534;2023-02-01T12:45:43;8.50;74.00
33207;DHT22;19565;46.602;11.534;2023-02-01T12:48:24;8.50;74.30
33207;DHT22;19565;46.602;11.534;2023-02-01T12:50:55;8.50;72.80
33207;DHT22;19565;46.602;11.534;2023-02-01T12:53:33;8.50;72.30
33207;DHT22;19565;46.602;11.534;2023-02-01T12:56:07;8.60;72.40
33207;DHT22;19565;46.602;11.534;2023-02-01T12:58:42;8.60;71.80
33207;DHT22;19565;46.602;11.534;2023-02-01T13:01:15;8.60;74.80
33207;DHT22;19565;46.602;11.534;2023-02-01T13:03:52;8.70;75.50
33207;DHT22;19565;46.602;11.534;2023-02-01T13:06:25;8.70;74.20
33207;DHT22;19565;46.602;11.534;2023-02-01T13:09:02;8.70;73.30
33207;DHT22;19565;46.602;11.534;2023-02-01T13:11:34;8.70;73.30
33207;DHT22;19565;46.602;11.534;2023-02-01T13:14:13;8.80;72.80
33207;DHT22;19565;46.602;11.534;2023-02-01T13:16:45;8.80;75.50
33207;DHT22;19565;46.602;11.534;2023-02-01T13:19:22;8.80;75.00
33207;DHT22;19565;46.602;11.534;2023-02-01T13:21:56;8.80;73.00
33207;DHT22;19565;46.602;11.534;2023-02-01T13:24:31;8.90;72.20
33207;DHT22;19565;46.602;11.534;2023-02-01T13:27:01;8.90;71.50
33207;DHT22;19565;46.602;11.534;2023-02-01T13:29:31;9.00;74.00
33207;DHT22;19565;46.602;11.534;2023-02-01T13:32:23;9.00;75.80
33207;DHT22;19565;46.602;11.534;2023-02-01T13:39:01;9.00;74.70
33207;DHT22;19565;46.602;11.534;2023-02-01T13:41:32;8.90;73.00
33207;DHT22;19565;46.602;11.534;2023-02-01T13:44:05;9.00;71.80
33207;DHT22;19565;46.602;11.534;2023-02-01T13:46:41;9.00;72.90
33207;DHT22;19565;46.602;11.534;2023-02-01T13:49:19;9.10;74.40
33207;DHT22;19565;46.602;11.534;2023-02-01T13:51:50;9.20;74.70
33207;DHT22;19565;46.602;11.534;2023-02-01T13:54:28;9.20;74.00
33207;DHT22;19565;46.602;11.534;2023-02-01T13:56:58;9.20;72.80
33207;DHT22;19565;46.602;11.534;2023-02-01T13:59:50;9.20;72.80
33207;DHT22;19565;46.602;11.534;2023-02-01T14:06:01;9.30;71.60
33207;DHT22;19565;46.602;11.534;2023-02-01T14:08:44;9.30;71.70
33207;DHT22;19565;46.602;11.534;2023-02-01T14:11:35;9.40;72.60
33207;DHT22;19565;46.602;11.534;2023-02-01T14:17:37;9.40;73.90
33207;DHT22;19565;46.602;11.534;2023-02-01T14:23:19;9.50;70.90
33207;DHT22;19565;46.602;11.534;2023-02-01T14:26:14;9.60;71.30
33207;DHT22;19565;46.602;11.534;2023-02-01T14:29:02;9.60;71.30
33207;DHT22;19565;46.602;11.534;2023-02-01T14:31:40;9.60;71.60
33207;DHT22;19565;46.602;11.534;2023-02-01T14:34:15;9.60;70.60
33207;DHT22;19565;46.602;11.534;2023-02-01T14:36:47;9.60;70.10
33207;DHT22;19565;46.602;11.534;2023-02-01T14:42:59;9.60;68.00
33207;DHT22;19565;46.602;11.534;2023-02-01T14:45:49;9.70;68.30
33207;DHT22;19565;46.602;11.534;2023-02-01T14:48:42;9.70;68.40
33207;DHT22;19565;46.602;11.534;2023-02-01T14:51:14;9.70;68.20
33207;DHT22;19565;46.602;11.534;2023-02-01T14:53:43;9.70;68.00
33207;DHT22;19565;46.602;11.534;2023-02-01T14:56:16;9.70;67.50
33207;DHT22;19565;46.602;11.534;2023-02-01T14:58:54;9.70;70.90
33207;DHT22;19565;46.602;11.534;2023-02-01T15:01:26;9.70;70.40
33207;DHT22;19565;46.602;11.534;2023-02-01T15:04:03;9.70;68.80
33207;DHT22;19565;46.602;11.534;2023-02-01T15:06:37;9.60;71.10
33207;DHT22;19565;46.602;11.534;2023-02-01T15:09:09;9.60;71.50
33207;DHT22;19565;46.602;11.534;2023-02-01T15:11:54;9.50;70.40
33207;DHT22;19565;46.602;11.534;2023-02-01T15:14:23;9.50;69.80
33207;DHT22;19565;46.602;11.534;2023-02-01T15:16:52;9.50;69.00
33207;DHT22;19565;46.602;11.534;2023-02-01T15:19:22;9.50;69.20
33207;DHT22;19565;46.602;11.534;2023-02-01T15:21:53;9.50;68.60
33207;DHT22;19565;46.602;11.534;2023-02-01T15:24:23;9.50;67.10
33207;DHT22;19565;46.602;11.534;2023-02-01T15:26:53;9.50;68.30
33207;DHT22;19565;46.602;11.534;2023-02-01T15:29:24;9.40;69.10
33207;DHT22;19565;46.602;11.534;2023-02-01T15:31:54;9.40;69.10
33207;DHT22;19565;46.602;11.534;2023-02-01T15:34:22;9.40;69.90
33207;DHT22;19565;46.602;11.534;2023-02-01T15:36:50;9.30;73.70
33207;DHT22;19565;46.602;11.534;2023-02-01T15:39:33;9.20;75.60
33207;DHT22;19565;46.602;11.534;2023-02-01T15:42:11;9.10;78.20
33207;DHT22;19565;46.602;11.534;2023-02-01T15:44:45;9.00;78.20
33207;DHT22;19565;46.602;11.534;2023-02-01T15:47:16;8.90;78.10
33207;DHT22;19565;46.602;11.534;2023-02-01T15:49:47;8.90;78.10
33207;DHT22;19565;46.602;11.534;2023-02-01T15:52:24;8.80;79.10
33207;DHT22;19565;46.602;11.534;2023-02-01T15:54:56;8.70;78.20
33207;DHT22;19565;46.602;11.534;2023-02-01T15:57:29;8.70;74.90
33207;DHT22;19565;46.602;11.534;2023-02-01T16:00:05;8.70;76.80
33207;DHT22;19565;46.602;11.534;2023-02-01T16:02:36;8.60;79.00
33207;DHT22;19565;46.602;11.534;2023-02-01T16:05:32;8.50;78.00
33207;DHT22;19565;46.602;11.534;2023-02-01T16:08:03;8.50;76.60
33207;DHT22;19565;46.602;11.534;2023-02-01T16:10:37;8.40;81.50
33207;DHT22;19565;46.602;11.534;2023-02-01T16:13:05;8.30;80.10
33207;DHT22;19565;46.602;11.534;2023-02-01T16:15:35;8.20;78.30
33207;DHT22;19565;46.602;11.534;2023-02-01T16:18:03;8.20;80.60
33207;DHT22;19565;46.602;11.534;2023-02-01T16:20:32;8.10;82.30
33207;DHT22;19565;46.602;11.534;2023-02-01T16:23:02;8.00;82.30
33207;DHT22;19565;46.602;11.534;2023-02-01T16:25:30;8.00;81.30
33207;DHT22;19565;46.602;11.534;2023-02-01T16:27:58;7.90;81.30
33207;DHT22;19565;46.602;11.534;2023-02-01T16:30:26;7.90;78.30
33207;DHT22;19565;46.602;11.534;2023-02-01T16:32:57;7.90;79.30